Destelbergen, Belgium
Current Conditions -  °F | °C
As of 10:25 AM on Saturday 20 Dec 2014 (Local Time) from EHFS Reporting Station
Clear Clear  
Wind Chill: 37°   Ceiling: Unl
Heat Index: 46°   Visibility: 6mi
Dew Point: 39°   Wind: 31mph
Humidity: 76%   Direction: 270°W
Pressure: 30.15"   Gusts: 43mph
Location:  51.06°N, 3.8°E
Report Text: EHFS 200925Z AUTO 27027G37KT 9999 NSC 08/04 Q1021
Loading
Personal Weather Stations






























Interactive Weather Map New forecast layout! Learn more

10-Day Weather Forecast

Advertisements
Track Severe Weather on mobile